Time;durP1;ratioP1;P1;durP2;ratioP2;P2;SDS_P1;SDS_P2;PMS_P1;PMS_P2;Temp;Humidity;BMP_temperature;BMP_pressure;BME280_temperature;BME280_humidity;BME280_pressure;Samples;Min_cycle;Max_cycle;Signal;HPM_P1;HPM_P2
2022/06/28 00:00:39;;;;;;;2.65;2.13;;;;;13.70;94639.00;;;;7392404;19;20150;-74
2022/06/28 00:03:13;;;;;;;2.10;1.90;;;;;13.80;94648.00;;;;7388872;19;20147;-75
2022/06/28 00:05:40;;;;;;;2.88;1.85;;;;;13.70;94649.00;;;;7389544;19;20141;-75
2022/06/28 00:08:08;;;;;;;1.92;1.60;;;;;13.60;94653.00;;;;7390366;19;20468;-76
2022/06/28 00:10:42;;;;;;;3.05;2.00;;;;;13.50;94659.00;;;;7386590;19;20644;-75
2022/06/28 00:13:09;;;;;;;2.72;1.80;;;;;13.60;94651.00;;;;7387792;19;20222;-75
2022/06/28 00:18:30;;;;;;;3.72;2.10;;;;;13.80;94657.00;;;;7391471;19;20473;-75
2022/06/28 00:21:08;;;;;;;2.13;1.90;;;;;13.60;94647.00;;;;7386934;19;20974;-75
2022/06/28 00:23:42;;;;;;;2.63;2.10;;;;;13.50;94644.00;;;;7389563;19;20152;-75
2022/06/28 00:26:11;;;;;;;2.38;1.80;;;;;13.50;94638.00;;;;7390943;19;20586;-74
2022/06/28 00:28:38;;;;;;;2.28;1.85;;;;;13.50;94636.00;;;;7390572;19;20125;-75
2022/06/28 00:31:13;;;;;;;1.80;1.70;;;;;13.40;94647.00;;;;7388470;19;20621;-74
2022/06/28 00:33:40;;;;;;;2.22;1.80;;;;;13.50;94638.00;;;;7389090;19;20726;-76
2022/06/28 00:36:08;;;;;;;3.45;2.00;;;;;13.50;94639.00;;;;7387499;19;20165;-76
2022/06/28 00:38:42;;;;;;;3.95;2.10;;;;;13.50;94632.00;;;;7389970;19;20466;-73
2022/06/28 00:41:10;;;;;;;3.72;2.00;;;;;13.40;94634.00;;;;7389562;19;20651;-74
2022/06/28 00:43:37;;;;;;;2.28;2.00;;;;;13.40;94633.00;;;;7389370;19;20144;-74
2022/06/28 00:46:11;;;;;;;2.42;2.22;;;;;13.50;94637.00;;;;7387657;19;20164;-74
2022/06/28 00:48:39;;;;;;;4.15;2.33;;;;;13.40;94634.00;;;;7389393;19;20141;-74
2022/06/28 00:51:09;;;;;;;3.05;2.10;;;;;13.40;94629.00;;;;7389858;19;20129;-75
2022/06/28 00:53:43;;;;;;;2.20;2.00;;;;;13.40;94641.00;;;;7388522;19;20147;-74
2022/06/28 00:56:10;;;;;;;3.63;2.13;;;;;13.30;94634.00;;;;7388558;19;20200;-77
2022/06/28 00:58:38;;;;;;;1.92;1.83;;;;;13.20;94638.00;;;;7388599;19;20606;-76
2022/06/28 01:01:12;;;;;;;2.47;2.03;;;;;13.20;94640.00;;;;7387804;19;20196;-76
2022/06/28 01:03:40;;;;;;;2.65;1.90;;;;;13.10;94646.00;;;;7392464;19;20137;-77
2022/06/28 01:06:08;;;;;;;5.05;2.20;;;;;13.10;94644.00;;;;7393827;19;20618;-75
2022/06/28 01:08:44;;;;;;;3.45;2.20;;;;;13.10;94648.00;;;;7396698;19;20129;-74
2022/06/28 01:11:18;;;;;;;4.35;2.20;;;;;13.00;94646.00;;;;7390953;19;20133;-74
2022/06/28 01:13:57;;;;;;;5.13;2.10;;;;;13.00;94651.00;;;;7396552;19;20594;-76
2022/06/28 01:16:24;;;;;;;2.08;1.92;;;;;13.00;94652.00;;;;7396490;19;20137;-76
2022/06/28 01:18:52;;;;;;;2.53;1.90;;;;;13.00;94652.00;;;;7394476;19;20501;-75
2022/06/28 01:21:35;;;;;;;2.10;1.90;;;;;12.90;94642.00;;;;7395937;19;20136;-74
2022/06/28 01:24:04;;;;;;;3.13;2.20;;;;;12.90;94645.00;;;;7395157;19;20120;-74
2022/06/28 01:26:39;;;;;;;4.75;2.58;;;;;12.90;94645.00;;;;7394662;19;20208;-75
2022/06/28 01:29:09;;;;;;;3.42;2.10;;;;;12.80;94653.00;;;;7395195;19;20138;-75
2022/06/28 01:31:37;;;;;;;3.70;2.35;;;;;12.80;94656.00;;;;7395397;19;20136;-76
2022/06/28 01:34:13;;;;;;;5.25;2.05;;;;;12.70;94656.00;;;;7395073;19;20575;-75
2022/06/28 01:36:40;;;;;;;4.07;2.10;;;;;12.70;94661.00;;;;7392252;19;20121;-74
2022/06/28 01:39:08;;;;;;;2.92;2.10;;;;;12.60;94653.00;;;;7395295;19;20196;-74
2022/06/28 01:41:43;;;;;;;4.45;2.63;;;;;12.60;94651.00;;;;7394404;19;20169;-76
2022/06/28 01:44:11;;;;;;;5.25;2.35;;;;;12.60;94649.00;;;;7393543;19;20633;-77
2022/06/28 01:46:39;;;;;;;3.10;2.80;;;;;12.70;94657.00;;;;7394909;19;20133;-76
2022/06/28 01:49:14;;;;;;;3.35;2.30;;;;;12.70;94659.00;;;;7394421;19;20587;-77
2022/06/28 01:51:41;;;;;;;4.45;2.13;;;;;12.50;94657.00;;;;7391340;19;20265;-76
2022/06/28 01:54:09;;;;;;;2.72;2.47;;;;;12.50;94655.00;;;;7394386;19;20124;-76
2022/06/28 01:56:43;;;;;;;4.38;2.20;;;;;12.50;94661.00;;;;7394180;19;20162;-74
2022/06/28 01:59:11;;;;;;;5.30;2.42;;;;;12.40;94658.00;;;;7395049;19;20195;-74
2022/06/28 02:01:38;;;;;;;4.80;2.40;;;;;12.30;94660.00;;;;7393922;19;20157;-76
2022/06/28 02:04:19;;;;;;;4.72;2.20;;;;;12.20;94660.00;;;;7393520;19;20215;-76
2022/06/28 02:06:47;;;;;;;3.25;2.47;;;;;12.30;94667.00;;;;7392994;19;20129;-76
2022/06/28 02:09:22;;;;;;;4.97;2.60;;;;;12.30;94665.00;;;;7393943;19;20151;-75
2022/06/28 02:11:53;;;;;;;3.40;2.70;;;;;12.30;94662.00;;;;7390088;19;20208;-75
2022/06/28 02:14:20;;;;;;;2.75;2.40;;;;;12.20;94659.00;;;;7393130;19;20136;-75
2022/06/28 02:16:56;;;;;;;5.60;2.85;;;;;12.20;94656.00;;;;7392557;19;20151;-75
2022/06/28 02:19:37;;;;;;;5.13;2.60;;;;;12.10;94657.00;;;;7393505;19;20168;-75
2022/06/28 02:22:12;;;;;;;7.57;3.30;;;;;12.20;94657.00;;;;7393509;19;20164;-75
2022/06/28 02:24:40;;;;;;;6.75;3.17;;;;;12.30;94653.00;;;;7393170;19;20258;-75
2022/06/28 02:27:07;;;;;;;5.03;3.10;;;;;12.30;94658.00;;;;7393908;19;20164;-74
2022/06/28 02:29:41;;;;;;;4.90;3.50;;;;;12.20;94658.00;;;;7393855;19;20466;-75
2022/06/28 02:32:08;;;;;;;5.03;3.33;;;;;12.20;94656.00;;;;7393572;19;20152;-75
2022/06/28 02:40:24;;;;;;;4.40;3.80;;;;;12.10;94663.00;;;;7393369;19;20154;-74
2022/06/28 02:43:00;;;;;;;7.22;3.97;;;;;12.10;94669.00;;;;7392801;19;20148;-74
2022/06/28 02:45:30;;;;;;;3.80;3.40;;;;;12.20;94662.00;;;;7393428;19;20144;-75
2022/06/28 02:47:58;;;;;;;4.60;3.88;;;;;12.20;94664.00;;;;7392371;19;20625;-75
2022/06/28 02:50:32;;;;;;;7.72;4.00;;;;;12.40;94663.00;;;;7392848;19;20180;-76
2022/06/28 02:53:00;;;;;;;7.57;4.20;;;;;12.30;94666.00;;;;7390690;19;20199;-75
2022/06/28 02:55:28;;;;;;;5.63;3.63;;;;;12.30;94659.00;;;;7393515;19;20200;-75
2022/06/28 02:58:02;;;;;;;6.38;4.07;;;;;12.40;94654.00;;;;7392814;19;20151;-76
2022/06/28 03:00:30;;;;;;;6.05;4.10;;;;;12.30;94651.00;;;;7391749;19;20145;-75
2022/06/28 03:02:58;;;;;;;7.47;4.22;;;;;12.30;94654.00;;;;7392049;19;20137;-75
2022/06/28 03:05:32;;;;;;;6.47;3.60;;;;;12.30;94647.00;;;;7394360;19;20121;-74
2022/06/28 03:08:06;;;;;;;5.38;3.42;;;;;12.20;94641.00;;;;7391637;19;20151;-75
2022/06/28 03:10:40;;;;;;;3.97;3.55;;;;;12.20;94646.00;;;;7386814;19;20149;-76
2022/06/28 03:13:08;;;;;;;7.82;3.47;;;;;12.30;94650.00;;;;7392403;19;20117;-75
2022/06/28 03:15:35;;;;;;;4.05;3.65;;;;;12.20;94658.00;;;;7393049;19;20125;-75
2022/06/28 03:18:10;;;;;;;4.28;3.20;;;;;12.00;94667.00;;;;7390455;19;20128;-75
2022/06/28 03:20:50;;;;;;;3.42;2.90;;;;;11.90;94663.00;;;;7390098;19;20271;-75
2022/06/28 03:23:25;;;;;;;3.42;2.80;;;;;11.90;94665.00;;;;7391024;19;20129;-75
2022/06/28 03:25:53;;;;;;;4.85;3.05;;;;;11.90;94671.00;;;;7391413;19;20224;-75
2022/06/28 03:28:20;;;;;;;5.25;2.83;;;;;11.90;94667.00;;;;7392400;19;20476;-75
2022/06/28 03:30:54;;;;;;;8.02;3.22;;;;;11.80;94669.00;;;;7393081;19;20152;-75
2022/06/28 03:33:21;;;;;;;2.90;2.60;;;;;11.80;94667.00;;;;7389918;19;20231;-74
2022/06/28 03:35:49;;;;;;;3.05;2.75;;;;;11.90;94678.00;;;;7390495;19;20129;-75
2022/06/28 03:38:23;;;;;;;3.17;2.75;;;;;11.80;94676.00;;;;7389443;19;20662;-74
2022/06/28 03:40:51;;;;;;;3.03;2.80;;;;;11.80;94681.00;;;;7391152;19;20607;-75
2022/06/28 03:43:18;;;;;;;5.50;3.38;;;;;11.90;94690.00;;;;7390982;19;20141;-74
2022/06/28 03:45:52;;;;;;;3.33;2.90;;;;;11.90;94684.00;;;;7391765;19;20133;-75
2022/06/28 03:48:20;;;;;;;3.33;2.60;;;;;11.90;94684.00;;;;7392012;19;20129;-74
2022/06/28 03:50:47;;;;;;;6.22;3.10;;;;;11.90;94692.00;;;;7392227;19;20152;-74
2022/06/28 03:53:21;;;;;;;5.60;3.00;;;;;11.90;94684.00;;;;7391351;19;20662;-75
2022/06/28 03:55:48;;;;;;;3.17;2.45;;;;;12.00;94692.00;;;;7393068;19;20145;-75
2022/06/28 03:58:16;;;;;;;3.88;3.00;;;;;11.90;94690.00;;;;7390525;19;20891;-74
2022/06/28 04:00:50;;;;;;;3.30;3.00;;;;;12.00;94690.00;;;;7391237;19;20141;-75
2022/06/28 04:03:17;;;;;;;4.28;3.22;;;;;12.10;94699.00;;;;7392799;19;20608;-75
2022/06/28 04:05:45;;;;;;;8.65;3.17;;;;;12.20;94696.00;;;;7390774;19;20140;-75
2022/06/28 04:08:19;;;;;;;3.50;2.97;;;;;12.20;94681.00;;;;7389324;19;20188;-75
2022/06/28 04:10:48;;;;;;;4.38;3.15;;;;;12.30;94688.00;;;;7386536;19;20176;-74
2022/06/28 04:13:20;;;;;;;6.80;3.47;;;;;12.40;94692.00;;;;7390338;19;20133;-74
2022/06/28 04:15:54;;;;;;;4.07;3.60;;;;;12.50;94688.00;;;;7390147;19;20149;-75
2022/06/28 04:18:21;;;;;;;5.63;3.60;;;;;12.60;94683.00;;;;7390895;19;20637;-75
2022/06/28 04:20:49;;;;;;;4.55;3.60;;;;;12.70;94682.00;;;;7388457;19;20176;-74
2022/06/28 04:23:24;;;;;;;4.40;3.40;;;;;12.80;94683.00;;;;7390181;19;20124;-74
2022/06/28 04:25:52;;;;;;;5.13;3.83;;;;;12.80;94681.00;;;;7391908;19;20125;-75
2022/06/28 04:28:20;;;;;;;7.95;5.35;;;;;13.00;94679.00;;;;7389085;19;20133;-75
2022/06/28 04:30:57;;;;;;;10.07;7.22;;;;;13.10;94682.00;;;;7389400;19;20167;-74
2022/06/28 04:33:24;;;;;;;13.32;8.15;;;;;13.20;94678.00;;;;7391146;19;20475;-75
2022/06/28 04:35:53;;;;;;;12.10;7.57;;;;;13.30;94678.00;;;;7396331;19;20156;-75
2022/06/28 04:38:27;;;;;;;11.05;7.68;;;;;13.40;94689.00;;;;7397127;19;20490;-75
2022/06/28 04:40:54;;;;;;;11.95;8.52;;;;;13.50;94685.00;;;;7397988;19;20149;-75
2022/06/28 04:43:22;;;;;;;14.13;10.25;;;;;13.50;94685.00;;;;7396564;19;20133;-75
2022/06/28 04:45:56;;;;;;;12.90;9.40;;;;;13.60;94692.00;;;;7396436;19;20168;-77
2022/06/28 04:48:23;;;;;;;14.23;9.98;;;;;13.60;94683.00;;;;7398053;19;20173;-77
2022/06/28 04:50:51;;;;;;;12.80;9.50;;;;;13.70;94675.00;;;;7397180;19;20125;-75
2022/06/28 04:53:31;;;;;;;15.95;9.55;;;;;13.90;94682.00;;;;7394417;19;20137;-74
2022/06/28 04:55:59;;;;;;;12.75;9.63;;;;;13.80;94684.00;;;;7396317;19;20136;-76
2022/06/28 04:58:33;;;;;;;12.27;9.25;;;;;14.00;94682.00;;;;7396676;19;20203;-75
2022/06/28 05:01:01;;;;;;;10.85;7.63;;;;;14.10;94684.00;;;;7385157;19;20148;-76
2022/06/28 05:03:44;;;;;;;8.85;7.28;;;;;14.20;94692.00;;;;7398487;19;20155;-77
2022/06/28 05:06:20;;;;;;;11.77;7.32;;;;;14.20;94692.00;;;;7397448;19;20152;-76
2022/06/28 05:08:55;;;;;;;8.45;7.57;;;;;14.40;94684.00;;;;7399316;19;20587;-75
2022/06/28 05:11:50;;;;;;;8.48;7.40;;;;;14.50;94671.00;;;;7397789;19;20164;-74
2022/06/28 05:14:17;;;;;;;9.10;7.75;;;;;14.80;94656.00;;;;7393491;19;20161;-74
2022/06/28 05:16:52;;;;;;;10.68;9.57;;;;;15.20;94658.00;;;;7397899;19;20179;-75
2022/06/28 05:19:27;;;;;;;10.25;9.25;;;;;15.60;94664.00;;;;7399149;19;20150;-74
2022/06/28 05:22:10;;;;;;;12.60;7.93;;;;;15.80;94667.00;;;;7396479;19;20144;-75
2022/06/28 05:24:38;;;;;;;7.18;6.45;;;;;15.80;94663.00;;;;7397570;19;20631;-76
2022/06/28 05:27:12;;;;;;;6.10;5.40;;;;;15.70;94665.00;;;;7397842;19;20169;-76
2022/06/28 05:29:40;;;;;;;5.22;4.75;;;;;15.70;94666.00;;;;7401057;19;20136;-76
2022/06/28 05:32:07;;;;;;;6.30;5.13;;;;;15.90;94670.00;;;;7395570;19;20629;-76
2022/06/28 05:34:42;;;;;;;5.25;4.65;;;;;15.90;94660.00;;;;7394144;19;20617;-77
2022/06/28 05:37:11;;;;;;;5.38;4.15;;;;;16.10;94660.00;;;;7397226;19;20170;-77
2022/06/28 05:39:38;;;;;;;4.30;3.70;;;;;16.20;94669.00;;;;7398060;19;20141;-76
2022/06/28 05:42:14;;;;;;;4.80;3.90;;;;;16.30;94668.00;;;;7393985;19;20144;-76
2022/06/28 05:44:41;;;;;;;4.03;3.58;;;;;16.20;94664.00;;;;7396134;19;20675;-77
2022/06/28 05:47:11;;;;;;;3.55;3.25;;;;;16.10;94664.00;;;;7397419;19;20144;-75
2022/06/28 05:49:45;;;;;;;5.25;3.30;;;;;16.30;94667.00;;;;7399102;19;20586;-76
2022/06/28 05:52:13;;;;;;;4.00;3.60;;;;;16.40;94663.00;;;;7393007;19;20148;-77
2022/06/28 05:54:42;;;;;;;3.65;3.30;;;;;16.50;94660.00;;;;7393138;19;20152;-76
2022/06/28 05:57:17;;;;;;;4.93;3.00;;;;;16.60;94665.00;;;;7398650;19;20152;-74
2022/06/28 05:59:44;;;;;;;6.22;2.50;;;;;16.80;94662.00;;;;7398147;19;20149;-75
2022/06/28 06:02:12;;;;;;;4.85;2.53;;;;;17.00;94649.00;;;;7393648;19;20625;-75
2022/06/28 06:04:46;;;;;;;3.85;2.58;;;;;17.10;94650.00;;;;7394704;19;20176;-75
2022/06/28 06:07:13;;;;;;;2.90;2.60;;;;;17.20;94644.00;;;;7397289;19;20487;-76
2022/06/28 06:09:42;;;;;;;3.17;2.40;;;;;17.00;94647.00;;;;7391307;19;20156;-76
2022/06/28 06:12:20;;;;;;;3.83;2.70;;;;;16.80;94640.00;;;;7389843;19;20579;-75
2022/06/28 06:14:48;;;;;;;3.00;2.58;;;;;17.00;94621.00;;;;7392761;19;20162;-76
2022/06/28 06:17:16;;;;;;;6.25;2.63;;;;;17.30;94613.00;;;;7396118;19;20144;-76
2022/06/28 06:19:57;;;;;;;4.10;2.75;;;;;17.40;94624.00;;;;7395464;19;20626;-74
2022/06/28 06:22:31;;;;;;;3.58;2.80;;;;;17.60;94612.00;;;;7392994;19;20151;-75
2022/06/28 06:25:07;;;;;;;2.85;2.10;;;;;17.90;94616.00;;;;7395740;19;20156;-77
2022/06/28 06:27:37;;;;;;;3.38;2.60;;;;;18.00;94611.00;;;;7398925;19;20152;-75
2022/06/28 06:30:06;;;;;;;4.35;2.20;;;;;18.20;94609.00;;;;7392310;19;20170;-75
2022/06/28 06:32:40;;;;;;;2.20;2.00;;;;;18.20;94611.00;;;;7394690;19;20120;-74
2022/06/28 06:35:09;;;;;;;5.53;2.30;;;;;18.00;94602.00;;;;7395128;19;20626;-73
2022/06/28 06:37:36;;;;;;;3.45;2.10;;;;;17.80;94604.00;;;;7397292;19;20471;-75
2022/06/28 06:40:11;;;;;;;4.75;2.58;;;;;17.60;94603.00;;;;7391438;19;20141;-76
2022/06/28 06:42:38;;;;;;;3.30;2.25;;;;;17.10;94621.00;;;;7392242;19;20909;-74
2022/06/28 06:45:07;;;;;;;2.50;2.28;;;;;16.80;94628.00;;;;7395476;19;20624;-75
2022/06/28 06:47:41;;;;;;;2.70;2.50;;;;;16.50;94614.00;;;;7395826;19;20481;-76
2022/06/28 06:50:09;;;;;;;3.15;2.85;;;;;16.20;94614.00;;;;7390839;19;20153;-76
2022/06/28 06:52:37;;;;;;;6.60;3.20;;;;;16.10;94608.00;;;;7393178;19;20610;-76
2022/06/28 06:55:11;;;;;;;3.92;3.45;;;;;16.20;94600.00;;;;7392330;19;20140;-75
2022/06/28 06:57:39;;;;;;;3.90;3.13;;;;;16.30;94596.00;;;;7392767;19;20154;-76
2022/06/28 07:00:09;;;;;;;7.18;3.33;;;;;16.50;94598.00;;;;7391407;19;20152;-75
2022/06/28 07:02:43;;;;;;;10.45;3.92;;;;;16.50;94601.00;;;;7393162;19;20139;-76
2022/06/28 07:05:12;;;;;;;5.53;4.13;;;;;16.90;94598.00;;;;7394106;19;20170;-75
2022/06/28 07:07:40;;;;;;;4.45;4.13;;;;;17.00;94603.00;;;;7394752;19;20622;-76
2022/06/28 07:10:14;;;;;;;5.85;5.22;;;;;17.60;94603.00;;;;7391460;19;20148;-75
2022/06/28 07:12:45;;;;;;;6.53;5.13;;;;;17.90;94603.00;;;;7391860;19;20145;-74
2022/06/28 07:15:13;;;;;;;5.18;4.40;;;;;18.00;94602.00;;;;7391578;19;20187;-75
2022/06/28 07:17:47;;;;;;;5.32;4.60;;;;;18.00;94598.00;;;;7396109;19;20139;-75
2022/06/28 07:20:22;;;;;;;7.88;4.90;;;;;17.80;94598.00;;;;7390539;19;20791;-76
2022/06/28 07:23:03;;;;;;;5.68;4.55;;;;;17.60;94607.00;;;;7393032;19;20594;-75
2022/06/28 07:25:30;;;;;;;5.45;4.95;;;;;17.40;94620.00;;;;7393121;19;20521;-76
2022/06/28 07:28:08;;;;;;;7.38;4.53;;;;;17.10;94630.00;;;;7391079;19;20144;-75
2022/06/28 07:30:36;;;;;;;5.70;4.55;;;;;17.10;94622.00;;;;7391631;19;20485;-76
2022/06/28 07:33:04;;;;;;;6.03;4.82;;;;;17.20;94632.00;;;;7394065;19;20171;-75
2022/06/28 07:35:38;;;;;;;6.03;4.88;;;;;17.20;94638.00;;;;7393911;19;20144;-76
2022/06/28 07:38:06;;;;;;;4.90;4.47;;;;;17.30;94637.00;;;;7388699;19;20144;-76
2022/06/28 07:40:34;;;;;;;6.18;5.10;;;;;17.40;94627.00;;;;7392440;19;20168;-74
2022/06/28 07:43:08;;;;;;;4.80;4.40;;;;;17.90;94629.00;;;;7391433;19;20560;-74
2022/06/28 07:45:38;;;;;;;6.20;5.05;;;;;18.20;94624.00;;;;7394929;19;20117;-73
2022/06/28 07:48:07;;;;;;;5.95;4.40;;;;;18.10;94630.00;;;;7389860;19;20141;-77
2022/06/28 07:53:28;;;;;;;5.30;4.80;;;;;18.20;94627.00;;;;7392997;19;20146;-76
2022/06/28 07:56:03;;;;;;;5.47;4.05;;;;;18.30;94628.00;;;;7390837;19;20578;-76
2022/06/28 07:58:30;;;;;;;10.60;5.00;;;;;18.70;94621.00;;;;7390461;19;20145;-75
2022/06/28 08:00:59;;;;;;;4.50;4.10;;;;;19.40;94624.00;;;;7392811;19;20125;-75
2022/06/28 08:03:32;;;;;;;4.68;4.28;;;;;19.50;94612.00;;;;7393678;19;20159;-75
2022/06/28 08:06:00;;;;;;;5.90;4.00;;;;;19.60;94633.00;;;;7390862;19;20137;-74
2022/06/28 08:08:28;;;;;;;4.22;3.83;;;;;19.40;94614.00;;;;7387443;19;20133;-76
2022/06/28 08:11:03;;;;;;;4.30;3.90;;;;;19.70;94613.00;;;;7387847;19;20629;-75
2022/06/28 08:13:31;;;;;;;7.35;3.80;;;;;20.10;94604.00;;;;7391083;19;20614;-75
2022/06/28 08:15:59;;;;;;;3.95;3.53;;;;;20.20;94589.00;;;;7388915;19;20615;-76
2022/06/28 08:18:33;;;;;;;3.20;2.90;;;;;20.30;94588.00;;;;7390640;19;20620;-76
2022/06/28 08:21:08;;;;;;;3.10;2.80;;;;;20.30;94588.00;;;;7389948;19;20793;-76
2022/06/28 08:23:42;;;;;;;4.10;2.83;;;;;19.50;94593.00;;;;7392685;19;20163;-76
2022/06/28 08:26:10;;;;;;;2.88;2.60;;;;;20.10;94583.00;;;;7390350;19;20145;-75
2022/06/28 08:28:38;;;;;;;6.15;2.80;;;;;20.50;94586.00;;;;7391822;19;20132;-76
2022/06/28 08:31:11;;;;;;;3.33;2.42;;;;;20.80;94568.00;;;;7393257;19;20460;-75
2022/06/28 08:33:39;;;;;;;2.95;2.30;;;;;20.60;94565.00;;;;7391354;19;20145;-75
2022/06/28 08:36:06;;;;;;;2.55;2.15;;;;;20.80;94583.00;;;;7389995;19;20141;-75
2022/06/28 08:38:40;;;;;;;3.30;2.53;;;;;20.50;94572.00;;;;7392151;19;20144;-75
2022/06/28 08:41:09;;;;;;;3.17;2.20;;;;;20.70;94583.00;;;;7392819;19;20157;-74
2022/06/28 08:43:37;;;;;;;3.28;2.10;;;;;20.40;94578.00;;;;7391733;19;20948;-75
2022/06/28 08:46:14;;;;;;;3.30;2.20;;;;;20.40;94578.00;;;;7387954;19;20144;-74
2022/06/28 08:48:46;;;;;;;2.20;1.98;;;;;20.50;94588.00;;;;7390190;19;20159;-75
2022/06/28 08:51:22;;;;;;;2.47;2.13;;;;;20.30;94583.00;;;;7391150;19;20136;-74
2022/06/28 08:53:56;;;;;;;2.92;2.40;;;;;21.10;94580.00;;;;7393623;19;20211;-74
2022/06/28 08:56:30;;;;;;;2.85;2.30;;;;;20.90;94571.00;;;;7389128;19;20129;-76
2022/06/28 08:58:59;;;;;;;3.35;2.22;;;;;21.10;94580.00;;;;7390202;19;20742;-75
2022/06/28 09:01:27;;;;;;;2.90;2.42;;;;;21.30;94566.00;;;;7390765;19;20157;-76
2022/06/28 09:04:04;;;;;;;2.40;2.20;;;;;21.40;94561.00;;;;7384284;19;20136;-77
2022/06/28 09:06:33;;;;;;;3.35;2.38;;;;;21.10;94556.00;;;;7389451;19;20137;-74
2022/06/28 09:09:01;;;;;;;5.70;2.08;;;;;20.90;94555.00;;;;7392509;19;20140;-76
2022/06/28 09:11:43;;;;;;;4.90;2.10;;;;;20.70;94564.00;;;;7386475;19;20165;-76
2022/06/28 09:14:34;;;;;;;3.33;1.83;;;;;20.50;94551.00;;;;7387187;19;20145;-76
2022/06/28 09:17:28;;;;;;;4.22;1.98;;;;;21.40;94548.00;;;;7391143;19;20145;-77
2022/06/28 09:20:05;;;;;;;3.83;2.15;;;;;21.70;94546.00;;;;7388959;19;20129;-74
2022/06/28 09:22:43;;;;;;;4.18;2.00;;;;;22.20;94564.00;;;;7395564;19;20167;-75
2022/06/28 09:25:26;;;;;;;4.13;2.10;;;;;21.70;94563.00;;;;7397823;19;20152;-74
2022/06/28 09:28:02;;;;;;;3.05;2.30;;;;;21.40;94569.00;;;;7394489;19;20476;-76
2022/06/28 09:30:32;;;;;;;2.53;2.03;;;;;21.00;94558.00;;;;7396015;19;20140;-76
2022/06/28 09:33:03;;;;;;;3.30;2.20;;;;;21.20;94558.00;;;;7396970;19;20155;-76
2022/06/28 09:35:37;;;;;;;7.72;2.38;;;;;21.40;94546.00;;;;7397550;19;20129;-76
2022/06/28 09:38:05;;;;;;;2.95;1.90;;;;;22.40;94557.00;;;;7394253;19;20167;-77
2022/06/28 09:40:33;;;;;;;4.30;2.00;;;;;22.00;94555.00;;;;7397626;19;20133;-75
2022/06/28 09:43:14;;;;;;;6.20;2.13;;;;;21.70;94571.00;;;;7396027;19;20151;-75
2022/06/28 09:45:50;;;;;;;2.10;1.80;;;;;21.30;94561.00;;;;7397161;19;20152;-77
2022/06/28 09:48:23;;;;;;;2.47;1.75;;;;;21.80;94579.00;;;;7394703;19;20619;-76
2022/06/28 09:50:58;;;;;;;2.20;1.98;;;;;21.30;94589.00;;;;7395398;19;20129;-76
2022/06/28 09:53:35;;;;;;;2.45;2.10;;;;;21.60;94561.00;;;;7397660;19;20152;-76
2022/06/28 09:56:25;;;;;;;1.95;1.83;;;;;21.80;94570.00;;;;7395092;19;20181;-76
2022/06/28 09:59:00;;;;;;;4.72;2.00;;;;;21.70;94568.00;;;;7396739;19;20630;-75
2022/06/28 10:01:28;;;;;;;3.58;2.00;;;;;22.00;94571.00;;;;7395013;19;20144;-74
2022/06/28 10:03:58;;;;;;;3.30;2.22;;;;;21.80;94570.00;;;;7393370;19;20149;-76
2022/06/28 10:06:33;;;;;;;3.15;2.22;;;;;21.60;94566.00;;;;7395503;19;20144;-74
2022/06/28 10:09:04;;;;;;;2.00;1.80;;;;;21.20;94564.00;;;;7398039;19;20139;-75
2022/06/28 10:15:01;;;;;;;7.03;2.35;;;;;20.40;94560.00;;;;7393350;19;20180;-75
2022/06/28 10:17:36;;;;;;;3.10;2.20;;;;;20.10;94553.00;;;;7396658;19;20153;-76
2022/06/28 10:20:36;;;;;;;2.15;2.05;;;;;20.40;94552.00;;;;7393805;19;20153;-76
2022/06/28 10:23:22;;;;;;;3.97;2.03;;;;;20.80;94546.00;;;;7395860;19;20169;-77
2022/06/28 10:26:15;;;;;;;3.08;2.30;;;;;20.70;94543.00;;;;7393623;19;20171;-77
2022/06/28 10:29:00;;;;;;;2.42;2.15;;;;;20.70;94550.00;;;;7394537;19;20159;-77
2022/06/28 10:31:42;;;;;;;4.90;2.13;;;;;20.70;94553.00;;;;7394944;19;20148;-75
2022/06/28 10:34:15;;;;;;;3.92;2.17;;;;;22.00;94529.00;;;;7393154;19;20704;-76
2022/06/28 10:36:57;;;;;;;2.58;2.10;;;;;23.40;94514.00;;;;7395759;19;20579;-75
2022/06/28 10:39:26;;;;;;;3.08;2.10;;;;;23.50;94534.00;;;;7395833;19;20601;-76
2022/06/28 10:42:00;;;;;;;3.28;2.30;;;;;22.80;94538.00;;;;7391240;19;20605;-75
2022/06/28 10:44:44;;;;;;;2.95;2.00;;;;;22.10;94529.00;;;;7391800;19;20631;-75
2022/06/28 10:47:18;;;;;;;2.85;1.98;;;;;21.60;94537.00;;;;7395443;19;20155;-76
2022/06/28 10:49:56;;;;;;;2.80;2.20;;;;;21.40;94517.00;;;;7395931;19;20674;-77
2022/06/28 10:52:33;;;;;;;4.70;2.28;;;;;21.60;94504.00;;;;7392503;19;20153;-76
2022/06/28 10:55:03;;;;;;;3.75;2.28;;;;;22.50;94509.00;;;;7393144;19;20153;-72
2022/06/28 10:57:42;;;;;;;3.08;1.90;;;;;22.50;94507.00;;;;7395136;19;20515;-76
2022/06/28 11:00:23;;;;;;;2.40;1.92;;;;;22.10;94495.00;;;;7392265;19;20141;-75
2022/06/28 11:02:56;;;;;;;4.50;2.25;;;;;21.90;94505.00;;;;7393329;19;20159;-74
2022/06/28 11:05:53;;;;;;;2.63;2.00;;;;;21.80;94479.00;;;;7396372;19;20133;-74
2022/06/28 11:08:49;;;;;;;4.82;1.98;;;;;22.00;94480.00;;;;7392753;19;20150;-75
2022/06/28 11:11:16;;;;;;;2.00;1.90;;;;;21.90;94484.00;;;;7390928;19;20216;-74
2022/06/28 11:14:32;;;;;;;5.68;2.25;;;;;22.00;94479.00;;;;7394761;19;20144;-76
2022/06/28 11:17:34;;;;;;;2.58;1.85;;;;;21.90;94462.00;;;;7393362;19;20151;-75
2022/06/28 11:20:30;;;;;;;2.10;1.90;;;;;21.80;94467.00;;;;7393199;19;20622;-76
2022/06/28 11:23:05;;;;;;;3.50;2.20;;;;;22.20;94455.00;;;;7394028;19;20479;-76
2022/06/28 11:29:02;;;;;;;2.97;2.10;;;;;23.10;94435.00;;;;7395010;19;20552;-77
2022/06/28 11:31:41;;;;;;;1.75;1.60;;;;;23.60;94448.00;;;;7393231;19;20477;-76
2022/06/28 11:34:09;;;;;;;2.55;2.00;;;;;23.90;94441.00;;;;7390209;19;20193;-77
2022/06/28 11:36:45;;;;;;;3.05;1.67;;;;;24.10;94440.00;;;;7392024;19;20468;-77
2022/06/28 11:39:22;;;;;;;1.98;1.67;;;;;24.50;94434.00;;;;7394313;19;20355;-75
2022/06/28 11:41:56;;;;;;;3.67;1.70;;;;;24.90;94432.00;;;;7391694;19;20140;-77
2022/06/28 11:44:25;;;;;;;2.75;1.67;;;;;24.60;94426.00;;;;7391038;19;20483;-76
2022/06/28 11:46:53;;;;;;;2.63;1.60;;;;;24.90;94429.00;;;;7391988;19;20129;-74
2022/06/28 11:49:30;;;;;;;3.83;1.65;;;;;25.10;94441.00;;;;7394949;19;20128;-77
2022/06/28 11:51:58;;;;;;;5.72;1.50;;;;;25.20;94433.00;;;;7389668;19;20156;-74
2022/06/28 11:54:26;;;;;;;1.50;1.40;;;;;25.30;94429.00;;;;7390700;19;20152;-76
2022/06/28 11:57:16;;;;;;;4.22;1.70;;;;;24.80;94436.00;;;;7392020;19;20148;-77
2022/06/28 11:59:59;;;;;;;1.92;1.70;;;;;24.70;94443.00;;;;7393305;19;20136;-75
2022/06/28 12:02:55;;;;;;;3.63;2.05;;;;;24.50;94454.00;;;;7390293;19;20204;-74
2022/06/28 12:05:34;;;;;;;3.63;1.75;;;;;23.90;94461.00;;;;7393323;19;20136;-74
2022/06/28 12:08:10;;;;;;;3.25;2.03;;;;;23.30;94459.00;;;;7391413;19;20129;-75
2022/06/28 12:10:38;;;;;;;2.83;1.45;;;;;22.90;94459.00;;;;7385365;19;20252;-76
2022/06/28 12:13:13;;;;;;;4.72;1.60;;;;;23.00;94459.00;;;;7389992;19;20243;-77
2022/06/28 12:15:47;;;;;;;3.67;1.60;;;;;22.60;94444.00;;;;7389732;19;20501;-75
2022/06/28 12:18:15;;;;;;;2.92;1.42;;;;;23.60;94441.00;;;;7388705;19;20216;-76
2022/06/28 12:20:57;;;;;;;1.60;1.50;;;;;23.20;94429.00;;;;7389883;19;20187;-75
2022/06/28 12:23:49;;;;;;;2.00;1.33;;;;;23.50;94437.00;;;;7393545;19;20614;-76
2022/06/28 12:26:17;;;;;;;1.92;1.40;;;;;23.90;94437.00;;;;7388787;19;20922;-77
2022/06/28 12:28:51;;;;;;;2.08;1.60;;;;;24.30;94440.00;;;;7389080;19;20749;-77
2022/06/28 12:31:19;;;;;;;3.30;1.60;;;;;24.00;94447.00;;;;7391705;19;20152;-77
2022/06/28 12:33:47;;;;;;;2.22;1.50;;;;;24.20;94445.00;;;;7393437;19;20168;-77
2022/06/28 12:36:21;;;;;;;3.95;1.50;;;;;24.00;94454.00;;;;7389435;19;20591;-77
2022/06/28 12:38:50;;;;;;;2.35;1.58;;;;;23.40;94461.00;;;;7389225;19;20141;-76
2022/06/28 12:41:18;;;;;;;4.88;1.38;;;;;22.80;94452.00;;;;7393074;19;20513;-76
2022/06/28 12:43:52;;;;;;;3.58;1.45;;;;;22.70;94460.00;;;;7388474;19;20135;-77
2022/06/28 12:46:20;;;;;;;2.95;1.48;;;;;22.60;94441.00;;;;7387005;19;20715;-76
2022/06/28 12:48:48;;;;;;;1.90;1.60;;;;;23.30;94435.00;;;;7390342;19;20204;-75
2022/06/28 12:51:22;;;;;;;1.58;1.45;;;;;23.70;94432.00;;;;7391431;19;20583;-75
2022/06/28 12:53:49;;;;;;;1.80;1.38;;;;;23.60;94432.00;;;;7391337;19;20606;-76
2022/06/28 12:56:17;;;;;;;1.85;1.50;;;;;22.90;94436.00;;;;7389167;19;20153;-77
2022/06/28 12:58:52;;;;;;;4.07;1.40;;;;;22.30;94429.00;;;;7393923;19;20588;-75
2022/06/28 13:01:21;;;;;;;3.60;1.40;;;;;22.10;94422.00;;;;7394255;19;20136;-77